createdAt,value
2019-05-19T00:01:53.066Z,15.60
2019-05-19T00:02:53.086Z,15.62
2019-05-19T00:04:45.989Z,15.60
2019-05-19T00:05:45.996Z,15.60
2019-05-19T00:07:39.413Z,15.54
2019-05-19T00:08:39.416Z,15.59
2019-05-19T00:10:32.329Z,15.47
2019-05-19T00:11:32.342Z,15.53
2019-05-19T00:13:25.260Z,15.43
2019-05-19T00:14:25.266Z,15.38
2019-05-19T00:16:18.672Z,15.46
2019-05-19T00:17:18.685Z,15.39
2019-05-19T00:19:25.818Z,15.46
2019-05-19T00:20:12.103Z,15.41
2019-05-19T00:22:05.519Z,15.38
2019-05-19T00:23:05.527Z,15.47
2019-05-19T00:24:58.937Z,15.35
2019-05-19T00:25:58.946Z,15.38
2019-05-19T00:27:52.369Z,15.38
2019-05-19T00:28:52.367Z,15.38
2019-05-19T00:30:45.283Z,15.39
2019-05-19T00:31:45.292Z,15.20
2019-05-19T00:33:38.707Z,15.14
2019-05-19T00:34:38.713Z,15.13
2019-05-19T00:36:32.121Z,15.16
2019-05-19T00:37:32.133Z,15.11
2019-05-19T00:39:25.050Z,15.09
2019-05-19T00:40:25.056Z,15.10
2019-05-19T00:42:18.470Z,15.13
2019-05-19T00:43:18.480Z,15.11
2019-05-19T00:45:11.882Z,15.09
2019-05-19T00:46:11.895Z,15.14
2019-05-19T00:48:05.315Z,15.10
2019-05-19T00:49:05.315Z,15.16
2019-05-19T00:50:58.725Z,15.09
2019-05-19T00:51:58.735Z,15.10
2019-05-19T00:53:52.152Z,15.11
2019-05-19T00:54:52.156Z,15.07
2019-05-19T00:56:45.565Z,15.02
2019-05-19T00:57:45.577Z,15.11
2019-05-19T00:59:38.989Z,15.03
2019-05-19T01:00:38.995Z,15.02
2019-05-19T01:02:32.407Z,14.95
2019-05-19T01:03:32.414Z,14.98
2019-05-19T01:05:25.822Z,14.92
2019-05-19T01:06:25.833Z,14.86
2019-05-19T01:08:18.753Z,14.83
2019-05-19T01:09:18.755Z,14.88
2019-05-19T01:11:12.173Z,14.94
2019-05-19T01:12:12.177Z,14.92
2019-05-19T01:14:05.594Z,14.83
2019-05-19T01:15:05.595Z,14.77
2019-05-19T01:16:59.015Z,14.73
2019-05-19T01:17:59.015Z,14.70
2019-05-19T01:19:56.055Z,14.69
2019-05-19T01:20:52.434Z,14.64
2019-05-19T01:22:45.375Z,14.57
2019-05-19T01:23:45.359Z,14.52
2019-05-19T01:25:38.763Z,14.62
2019-05-19T01:26:38.776Z,14.57
2019-05-19T01:28:32.192Z,14.52
2019-05-19T01:29:32.197Z,14.43
2019-05-19T01:31:25.115Z,14.32
2019-05-19T01:32:25.119Z,14.37
2019-05-19T01:34:18.536Z,14.43
2019-05-19T01:35:18.537Z,14.39
2019-05-19T01:37:11.443Z,14.29
2019-05-19T01:38:11.457Z,14.40
2019-05-19T01:40:04.867Z,14.35
2019-05-19T01:41:04.872Z,14.28
2019-05-19T01:42:58.284Z,14.21
2019-05-19T01:43:58.290Z,14.28
2019-05-19T01:45:51.705Z,14.21
2019-05-19T01:46:51.706Z,14.20
2019-05-19T01:48:45.130Z,14.28
2019-05-19T01:49:45.143Z,14.17
2019-05-19T01:51:38.044Z,14.29
2019-05-19T01:52:38.056Z,14.27
2019-05-19T01:54:31.466Z,14.24
2019-05-19T01:55:31.474Z,14.21
2019-05-19T01:57:24.878Z,14.20
2019-05-19T01:58:24.889Z,14.14
2019-05-19T02:00:18.300Z,14.14
2019-05-19T02:01:18.313Z,14.18
2019-05-19T02:03:11.724Z,14.10
2019-05-19T02:04:11.728Z,14.03
2019-05-19T02:06:05.132Z,14.06
2019-05-19T02:07:05.146Z,14.02
2019-05-19T02:08:58.558Z,14.04
2019-05-19T02:09:58.567Z,13.97
2019-05-19T02:11:51.974Z,14.14
2019-05-19T02:12:51.981Z,14.10
2019-05-19T02:14:45.392Z,13.99
2019-05-19T02:15:45.399Z,14.02
2019-05-19T02:17:38.309Z,13.91
2019-05-19T02:18:38.323Z,13.96
2019-05-19T02:20:33.609Z,13.95
2019-05-19T02:21:31.239Z,13.88
2019-05-19T02:23:24.655Z,13.84
2019-05-19T02:24:24.657Z,13.77
2019-05-19T02:26:17.581Z,13.75
2019-05-19T02:27:17.578Z,13.73
2019-05-19T02:29:10.991Z,13.78
2019-05-19T02:30:10.997Z,13.78
2019-05-19T02:32:03.911Z,13.78
2019-05-19T02:33:03.919Z,13.71
2019-05-19T02:34:56.833Z,13.64
2019-05-19T02:35:56.836Z,13.63
2019-05-19T02:37:49.772Z,13.63
2019-05-19T02:38:49.756Z,13.55
2019-05-19T02:40:43.161Z,13.62
2019-05-19T02:41:43.187Z,13.60
2019-05-19T02:43:36.583Z,13.67
2019-05-19T02:44:36.599Z,13.64
2019-05-19T02:46:29.996Z,13.69
2019-05-19T02:47:30.003Z,13.60
2019-05-19T02:49:23.414Z,13.63
2019-05-19T02:50:23.421Z,13.66
2019-05-19T02:52:16.825Z,13.60
2019-05-19T02:53:16.837Z,13.69
2019-05-19T02:55:10.252Z,13.64
2019-05-19T02:56:10.251Z,13.66
2019-05-19T02:58:03.665Z,13.59
2019-05-19T02:59:03.669Z,13.59
2019-05-19T03:00:56.581Z,13.51
2019-05-19T03:01:56.593Z,13.52
2019-05-19T03:03:50.007Z,13.52
2019-05-19T03:04:50.012Z,13.59
2019-05-19T03:06:43.414Z,13.59
2019-05-19T03:07:43.426Z,13.57
2019-05-19T03:09:36.855Z,13.66
2019-05-19T03:10:36.843Z,13.59
2019-05-19T03:12:30.250Z,13.66
2019-05-19T03:13:30.263Z,13.59
2019-05-19T03:15:23.671Z,13.64
2019-05-19T03:16:23.688Z,13.66
2019-05-19T03:18:17.351Z,13.70
2019-05-19T03:19:17.092Z,13.71
2019-05-19T03:21:11.971Z,13.70
2019-05-19T03:22:10.517Z,13.78
2019-05-19T03:24:03.925Z,13.70
2019-05-19T03:25:03.943Z,13.75
2019-05-19T03:26:57.338Z,13.73
2019-05-19T03:27:57.395Z,13.70
2019-05-19T03:29:50.762Z,13.63
2019-05-19T03:30:50.768Z,13.70
2019-05-19T03:32:44.173Z,13.79
2019-05-19T03:33:44.182Z,13.66
2019-05-19T03:35:37.600Z,13.78
2019-05-19T03:36:37.601Z,13.54
2019-05-19T03:38:31.379Z,13.60
2019-05-19T03:39:31.085Z,13.52
2019-05-19T03:41:24.488Z,13.59
2019-05-19T03:42:24.498Z,13.48
2019-05-19T03:44:17.911Z,13.41
2019-05-19T03:45:17.918Z,13.42
2019-05-19T03:47:11.325Z,13.36
2019-05-19T03:48:11.342Z,13.44
2019-05-19T03:50:04.253Z,13.39
2019-05-19T03:51:04.257Z,13.46
2019-05-19T03:52:57.660Z,13.70
2019-05-19T03:53:57.670Z,13.71
2019-05-19T03:55:50.592Z,13.67
2019-05-19T03:56:50.591Z,13.75
2019-05-19T03:58:43.996Z,13.73
2019-05-19T03:59:44.008Z,13.71
2019-05-19T04:01:36.924Z,13.78
2019-05-19T04:02:36.930Z,13.78
2019-05-19T04:04:30.340Z,13.81
2019-05-19T04:05:30.345Z,13.78
2019-05-19T04:07:23.747Z,13.79
2019-05-19T04:08:23.758Z,13.88
2019-05-19T04:10:16.674Z,13.88
2019-05-19T04:11:16.693Z,13.87
2019-05-19T04:13:09.588Z,13.95
2019-05-19T04:14:09.601Z,13.91
2019-05-19T04:16:02.516Z,13.88
2019-05-19T04:17:02.539Z,13.92
2019-05-19T04:18:56.428Z,14.00
2019-05-19T04:19:56.441Z,14.12
2019-05-19T04:21:49.842Z,14.20
2019-05-19T04:22:49.362Z,14.24
2019-05-19T04:24:42.280Z,14.42
2019-05-19T04:25:42.292Z,14.42
2019-05-19T04:27:35.688Z,14.52
2019-05-19T04:28:35.701Z,14.55
2019-05-19T04:30:28.623Z,14.68
2019-05-19T04:31:28.625Z,14.70
2019-05-19T04:33:21.552Z,14.95
2019-05-19T04:34:21.547Z,15.03
2019-05-19T04:36:14.461Z,15.29
2019-05-19T04:37:14.468Z,15.35
2019-05-19T04:39:07.383Z,15.39
2019-05-19T04:40:07.393Z,15.62
2019-05-19T04:42:00.809Z,15.68
2019-05-19T04:43:00.817Z,15.87
2019-05-19T04:44:53.738Z,15.96
2019-05-19T04:45:53.734Z,16.09
2019-05-19T04:47:46.661Z,16.12
2019-05-19T04:48:46.665Z,16.09
2019-05-19T04:50:40.079Z,16.23
2019-05-19T04:51:40.086Z,16.17
2019-05-19T04:53:32.997Z,16.09
2019-05-19T04:54:33.008Z,16.01
2019-05-19T04:56:25.924Z,15.90
2019-05-19T04:57:25.933Z,15.89
2019-05-19T04:59:19.350Z,15.80
2019-05-19T05:00:19.352Z,15.72
2019-05-19T05:02:12.763Z,15.75
2019-05-19T05:03:12.774Z,15.74
2019-05-19T05:05:05.708Z,15.76
2019-05-19T05:06:05.701Z,15.92
2019-05-19T05:07:59.142Z,16.02
2019-05-19T05:08:59.128Z,16.04
2019-05-19T05:10:52.042Z,16.34
2019-05-19T05:11:52.076Z,16.34
2019-05-19T05:13:45.454Z,16.81
2019-05-19T05:14:45.470Z,17.00
2019-05-19T05:16:38.387Z,17.31
2019-05-19T05:17:38.398Z,17.48
2019-05-19T05:19:31.314Z,17.99
2019-05-19T05:20:31.326Z,18.15
2019-05-19T05:22:24.236Z,18.48
2019-05-19T05:23:24.250Z,18.69
2019-05-19T05:25:17.199Z,19.14
2019-05-19T05:26:17.181Z,19.29
2019-05-19T05:28:10.099Z,19.68
2019-05-19T05:29:10.116Z,19.71
2019-05-19T05:31:03.039Z,20.01
2019-05-19T05:32:03.047Z,20.13
2019-05-19T05:33:56.458Z,20.42
2019-05-19T05:34:56.474Z,20.42
2019-05-19T05:36:49.398Z,20.66
2019-05-19T05:37:49.412Z,20.74
2019-05-19T05:39:42.335Z,20.95
2019-05-19T05:40:42.343Z,20.99
2019-05-19T05:42:35.293Z,21.06
2019-05-19T05:43:35.281Z,21.04
2019-05-19T05:45:28.699Z,20.87
2019-05-19T05:46:28.718Z,20.85
2019-05-19T05:48:21.635Z,21.22
2019-05-19T05:49:21.648Z,21.24
2019-05-19T05:51:14.576Z,21.38
2019-05-19T05:52:14.588Z,21.61
2019-05-19T05:54:07.507Z,21.91
2019-05-19T05:55:07.525Z,22.00
2019-05-19T05:57:00.869Z,22.14
2019-05-19T05:58:00.463Z,22.09
2019-05-19T05:59:53.390Z,22.46
2019-05-19T06:00:53.404Z,22.65
2019-05-19T06:02:46.326Z,22.88
2019-05-19T06:03:46.347Z,22.98
2019-05-19T06:05:39.277Z,22.64
2019-05-19T06:06:39.286Z,22.79
2019-05-19T06:08:32.707Z,23.22
2019-05-19T06:09:32.727Z,23.16
2019-05-19T06:11:27.197Z,23.63
2019-05-19T06:12:27.166Z,23.70
2019-05-19T06:14:20.593Z,23.63
2019-05-19T06:15:20.607Z,23.65
2019-05-19T06:17:13.539Z,24.34
2019-05-19T06:18:13.558Z,24.60
2019-05-19T06:20:06.691Z,24.96
2019-05-19T06:21:06.511Z,25.27
2019-05-19T06:22:59.456Z,25.57
2019-05-19T06:23:59.457Z,25.67
2019-05-19T06:25:52.917Z,25.60
2019-05-19T06:26:52.905Z,25.57
2019-05-19T06:28:45.844Z,25.45
2019-05-19T06:29:45.862Z,25.55
2019-05-19T06:31:38.831Z,25.54
2019-05-19T06:32:38.821Z,25.55
2019-05-19T06:34:31.762Z,25.55
2019-05-19T06:35:31.785Z,25.58
2019-05-19T06:37:24.724Z,25.76
2019-05-19T06:38:24.750Z,25.82
2019-05-19T06:40:17.675Z,26.12
2019-05-19T06:41:17.707Z,26.07
2019-05-19T06:43:10.629Z,26.26
2019-05-19T06:44:10.651Z,26.07
2019-05-19T06:46:04.080Z,26.05
2019-05-19T06:47:04.099Z,25.80
2019-05-19T06:48:57.029Z,25.35
2019-05-19T06:49:57.055Z,25.17
2019-05-19T06:51:49.990Z,24.80
2019-05-19T06:52:50.013Z,24.61
2019-05-19T06:54:42.934Z,24.12
2019-05-19T06:55:42.955Z,23.79
2019-05-19T06:57:36.384Z,23.53
2019-05-19T06:58:36.400Z,23.53
2019-05-19T07:00:29.860Z,23.40
2019-05-19T07:01:29.843Z,23.46
2019-05-19T07:03:22.768Z,23.36
2019-05-19T07:04:22.829Z,23.47
2019-05-19T07:06:15.730Z,23.54
2019-05-19T07:07:15.805Z,23.61
2019-05-19T07:09:08.697Z,23.55
2019-05-19T07:10:08.718Z,23.40
2019-05-19T07:12:02.668Z,23.39
2019-05-19T07:13:02.685Z,23.58
2019-05-19T07:14:55.612Z,23.90
2019-05-19T07:15:55.633Z,23.90
2019-05-19T07:17:48.573Z,24.13
2019-05-19T07:18:48.590Z,24.12
2019-05-19T07:20:41.521Z,24.13
2019-05-19T07:21:41.541Z,24.22
2019-05-19T07:23:34.464Z,24.15
2019-05-19T07:24:34.487Z,24.05
2019-05-19T07:26:27.416Z,23.94
2019-05-19T07:27:27.430Z,23.79
2019-05-19T07:29:20.355Z,23.61
2019-05-19T07:30:20.406Z,23.69
2019-05-19T07:32:13.305Z,23.68
2019-05-19T07:33:13.320Z,23.54
2019-05-19T07:35:06.245Z,23.38
2019-05-19T07:36:06.273Z,23.40
2019-05-19T07:37:59.199Z,23.47
2019-05-19T07:38:59.209Z,23.51
2019-05-19T07:40:52.135Z,23.53
2019-05-19T07:41:52.151Z,23.40
2019-05-19T07:43:45.075Z,23.31
2019-05-19T07:44:45.473Z,23.42
2019-05-19T07:46:38.027Z,23.50
2019-05-19T07:47:38.042Z,23.51
2019-05-19T07:49:30.962Z,23.51
2019-05-19T07:50:30.989Z,23.42
2019-05-19T07:52:23.911Z,23.35
2019-05-19T07:53:23.924Z,23.35
2019-05-19T07:55:16.852Z,23.38
2019-05-19T07:56:16.874Z,23.36
2019-05-19T07:58:09.804Z,23.28
2019-05-19T07:59:09.818Z,23.25
2019-05-19T08:01:03.241Z,23.33
2019-05-19T08:02:03.260Z,23.36
2019-05-19T08:03:56.751Z,23.60
2019-05-19T08:04:56.688Z,23.66
2019-05-19T08:06:50.113Z,23.84
2019-05-19T08:07:50.124Z,23.88
2019-05-19T08:09:43.047Z,23.97
2019-05-19T08:10:43.064Z,23.88
2019-05-19T08:12:35.995Z,24.03
2019-05-19T08:13:36.009Z,24.12
2019-05-19T08:15:28.935Z,24.13
2019-05-19T08:16:28.956Z,24.10
2019-05-19T08:18:22.365Z,24.34
2019-05-19T08:19:22.520Z,24.18
2019-05-19T08:21:15.811Z,24.24
2019-05-19T08:22:15.822Z,24.21
2019-05-19T08:24:08.749Z,24.27
2019-05-19T08:25:08.763Z,24.13
2019-05-19T08:27:02.270Z,24.18
2019-05-19T08:28:08.368Z,24.15
2019-05-19T08:29:55.161Z,24.15
2019-05-19T08:30:55.155Z,24.16
2019-05-19T08:32:48.078Z,24.27
2019-05-19T08:33:48.100Z,24.35
2019-05-19T08:35:41.022Z,24.42
2019-05-19T08:36:41.032Z,24.32
2019-05-19T08:38:33.957Z,24.35
2019-05-19T08:39:33.973Z,24.32
2019-05-19T08:41:26.903Z,24.34
2019-05-19T08:42:26.914Z,24.43
2019-05-19T08:44:19.836Z,24.55
2019-05-19T08:45:19.855Z,24.58
2019-05-19T08:47:12.789Z,24.67
2019-05-19T08:48:12.801Z,24.71
2019-05-19T08:50:05.775Z,24.88
2019-05-19T08:51:05.739Z,24.85
2019-05-19T08:52:58.671Z,24.93
2019-05-19T08:53:58.683Z,24.81
2019-05-19T08:55:51.610Z,25.00
2019-05-19T08:56:51.626Z,25.05
2019-05-19T08:58:51.666Z,24.96
2019-05-19T08:59:44.574Z,25.00
2019-05-19T09:01:37.515Z,25.00
2019-05-19T09:02:37.509Z,25.06
2019-05-19T09:04:30.434Z,25.10
2019-05-19T09:05:30.449Z,25.09
2019-05-19T09:07:23.381Z,25.17
2019-05-19T09:08:23.434Z,24.99
2019-05-19T09:10:16.312Z,25.13
2019-05-19T09:11:16.333Z,25.28
2019-05-19T09:13:09.261Z,25.36
2019-05-19T09:14:09.274Z,25.36
2019-05-19T09:16:02.206Z,25.30
2019-05-19T09:17:02.286Z,25.33
2019-05-19T09:18:55.139Z,25.39
2019-05-19T09:19:55.160Z,25.40
2019-05-19T09:21:48.088Z,25.33
2019-05-19T09:22:48.103Z,25.33
2019-05-19T09:24:42.020Z,25.32
2019-05-19T09:25:42.046Z,25.46
2019-05-19T09:27:34.971Z,25.36
2019-05-19T09:28:34.982Z,25.27
2019-05-19T09:30:27.909Z,25.17
2019-05-19T09:31:27.926Z,24.98
2019-05-19T09:33:20.860Z,24.88
2019-05-19T09:34:20.922Z,24.77
2019-05-19T09:36:13.802Z,24.77
2019-05-19T09:37:13.817Z,24.91
2019-05-19T09:39:06.746Z,24.96
2019-05-19T09:40:06.763Z,25.05
2019-05-19T09:41:59.689Z,25.09
2019-05-19T09:42:59.705Z,25.15
2019-05-19T09:44:52.630Z,25.06
2019-05-19T09:45:52.647Z,25.13
2019-05-19T09:47:46.069Z,25.15
2019-05-19T09:48:46.083Z,25.09
2019-05-19T09:50:39.007Z,25.14
2019-05-19T09:51:39.025Z,25.08
2019-05-19T09:53:31.959Z,25.25
2019-05-19T09:54:44.151Z,25.35
2019-05-19T09:56:24.899Z,25.21
2019-05-19T09:57:24.912Z,25.18
2019-05-19T09:59:18.329Z,25.27
2019-05-19T10:00:18.351Z,25.27
2019-05-19T10:02:11.280Z,25.30
2019-05-19T10:03:11.292Z,25.27
2019-05-19T10:05:04.724Z,25.32
2019-05-19T10:06:04.740Z,25.36
2019-05-19T10:07:57.660Z,25.24
2019-05-19T10:08:57.674Z,25.14
2019-05-19T10:10:50.597Z,25.05
2019-05-19T10:11:50.625Z,25.10
2019-05-19T10:13:44.051Z,25.24
2019-05-19T10:14:44.068Z,25.18
2019-05-19T10:16:36.997Z,25.24
2019-05-19T10:17:37.007Z,25.45
2019-05-19T10:19:29.932Z,25.64
2019-05-19T10:20:29.953Z,25.87
2019-05-19T10:22:23.387Z,25.99
2019-05-19T10:23:23.391Z,26.07
2019-05-19T10:25:22.327Z,25.98
2019-05-19T10:26:16.336Z,26.01
2019-05-19T10:28:09.268Z,26.07
2019-05-19T10:29:09.290Z,26.18
2019-05-19T10:31:03.203Z,26.28
2019-05-19T10:32:03.221Z,26.09
2019-05-19T10:33:56.219Z,26.10
2019-05-19T10:34:56.164Z,26.32
2019-05-19T10:36:49.106Z,26.25
2019-05-19T10:37:49.107Z,26.26
2019-05-19T10:39:42.044Z,26.06
2019-05-19T10:40:42.054Z,26.07
2019-05-19T10:42:35.479Z,25.95
2019-05-19T10:43:35.501Z,26.12
2019-05-19T10:45:28.418Z,26.28
2019-05-19T10:46:28.446Z,26.07
2019-05-19T10:48:21.377Z,26.36
2019-05-19T10:49:21.388Z,26.50
2019-05-19T10:51:14.307Z,26.37
2019-05-19T10:52:14.328Z,26.30
2019-05-19T10:54:07.261Z,26.28
2019-05-19T10:55:07.274Z,26.20
2019-05-19T10:57:00.281Z,25.98
2019-05-19T10:58:00.218Z,26.07
2019-05-19T10:59:53.147Z,26.09
2019-05-19T11:00:53.171Z,25.95
2019-05-19T11:02:46.102Z,26.13
2019-05-19T11:03:46.115Z,26.18
2019-05-19T11:05:39.038Z,26.20
2019-05-19T11:06:39.058Z,26.07
2019-05-19T11:08:31.990Z,25.92
2019-05-19T11:09:32.007Z,25.92
2019-05-19T11:11:24.969Z,25.92
2019-05-19T11:12:24.956Z,25.99
2019-05-19T11:14:17.882Z,26.13
2019-05-19T11:15:17.903Z,26.06
2019-05-19T11:17:10.827Z,26.07
2019-05-19T11:18:10.840Z,26.12
2019-05-19T11:20:03.788Z,26.05
2019-05-19T11:21:03.847Z,26.05
2019-05-19T11:22:56.743Z,25.91
2019-05-19T11:23:56.757Z,25.91
2019-05-19T11:25:51.785Z,25.99
2019-05-19T11:26:49.699Z,26.10
2019-05-19T11:28:42.631Z,26.10
2019-05-19T11:29:42.643Z,26.09
2019-05-19T11:31:35.597Z,26.09
2019-05-19T11:32:35.592Z,26.07
2019-05-19T11:34:28.529Z,25.98
2019-05-19T11:35:28.535Z,26.12
2019-05-19T11:37:21.469Z,25.90
2019-05-19T11:38:21.482Z,25.94
2019-05-19T11:40:14.424Z,26.07
2019-05-19T11:41:14.423Z,26.28
2019-05-19T11:43:07.350Z,26.28
2019-05-19T11:44:07.383Z,26.29
2019-05-19T11:46:00.895Z,26.21
2019-05-19T11:47:00.324Z,26.25
2019-05-19T11:48:53.317Z,26.39
2019-05-19T11:49:53.282Z,26.37
2019-05-19T11:51:46.198Z,26.28
2019-05-19T11:52:46.239Z,26.10
2019-05-19T11:54:39.145Z,26.06
2019-05-19T11:55:39.174Z,26.10
2019-05-19T11:57:32.178Z,26.05
2019-05-19T11:58:32.137Z,26.09
2019-05-19T12:00:25.041Z,26.13
2019-05-19T12:01:25.117Z,25.98
2019-05-19T12:03:17.991Z,26.07
2019-05-19T12:04:18.010Z,26.09
2019-05-19T12:06:10.931Z,26.23
2019-05-19T12:07:10.951Z,26.20
2019-05-19T12:09:04.108Z,26.32
2019-05-19T12:10:04.238Z,26.48
2019-05-19T12:11:57.048Z,26.40
2019-05-19T12:12:57.075Z,26.48
2019-05-19T12:14:50.002Z,26.62
2019-05-19T12:15:50.017Z,26.69
2019-05-19T12:17:42.969Z,26.88
2019-05-19T12:18:42.984Z,26.87
2019-05-19T12:20:35.948Z,26.95
2019-05-19T12:21:35.994Z,26.92
2019-05-19T12:23:28.891Z,26.89
2019-05-19T12:24:28.888Z,26.73
2019-05-19T12:26:23.593Z,26.65
2019-05-19T12:27:21.842Z,26.55
2019-05-19T12:29:14.772Z,26.45
2019-05-19T12:30:14.786Z,26.37
2019-05-19T12:32:07.718Z,26.36
2019-05-19T12:33:07.733Z,26.32
2019-05-19T12:35:00.675Z,26.48
2019-05-19T12:36:00.697Z,26.60
2019-05-19T12:37:53.671Z,26.72
2019-05-19T12:38:53.656Z,26.75
2019-05-19T12:40:46.595Z,26.51
2019-05-19T12:41:46.602Z,26.43
2019-05-19T12:43:39.549Z,26.25
2019-05-19T12:44:39.546Z,26.32
2019-05-19T12:46:32.514Z,26.32
2019-05-19T12:47:32.500Z,26.33
2019-05-19T12:49:25.481Z,26.55
2019-05-19T12:50:25.455Z,26.62
2019-05-19T12:52:18.437Z,26.66
2019-05-19T12:53:18.443Z,26.65
2019-05-19T12:55:11.336Z,26.62
2019-05-19T12:56:11.365Z,26.55
2019-05-19T12:58:04.301Z,26.54
2019-05-19T12:59:04.322Z,26.66
2019-05-19T13:00:57.223Z,26.63
2019-05-19T13:01:57.243Z,26.75
2019-05-19T13:03:50.209Z,26.91
2019-05-19T13:05:04.296Z,26.89
2019-05-19T13:06:43.130Z,26.85
2019-05-19T13:07:43.149Z,26.89
2019-05-19T13:09:36.109Z,26.92
2019-05-19T13:10:36.090Z,26.87
2019-05-19T13:12:29.059Z,26.82
2019-05-19T13:13:29.049Z,26.81
2019-05-19T13:15:21.958Z,26.87
2019-05-19T13:16:21.980Z,26.87
2019-05-19T13:18:14.967Z,27.02
2019-05-19T13:19:14.939Z,27.04
2019-05-19T13:21:07.855Z,27.19
2019-05-19T13:22:07.897Z,27.28
2019-05-19T13:24:00.856Z,27.24
2019-05-19T13:25:00.831Z,27.27
2019-05-19T13:26:56.352Z,27.31
2019-05-19T13:27:53.786Z,27.37
2019-05-19T13:29:46.738Z,27.41
2019-05-19T13:30:46.724Z,27.39
2019-05-19T13:32:39.718Z,27.02
2019-05-19T13:33:39.674Z,26.94
2019-05-19T13:35:32.613Z,26.75
2019-05-19T13:36:32.641Z,26.62
2019-05-19T13:38:26.087Z,26.63
2019-05-19T13:39:26.080Z,26.73
2019-05-19T13:41:19.001Z,26.88
2019-05-19T13:42:19.016Z,27.00
2019-05-19T13:44:11.980Z,27.19
2019-05-19T13:45:11.974Z,27.24
2019-05-19T13:47:04.895Z,27.44
2019-05-19T13:48:04.891Z,27.29
2019-05-19T13:49:57.823Z,27.39
2019-05-19T13:50:57.836Z,27.34
2019-05-19T13:52:51.390Z,27.36
2019-05-19T13:53:50.786Z,27.43
2019-05-19T13:55:43.713Z,27.50
2019-05-19T13:56:43.742Z,27.47
2019-05-19T13:58:37.208Z,27.41
2019-05-19T13:59:37.177Z,27.41
2019-05-19T14:01:30.108Z,27.37
2019-05-19T14:02:30.126Z,27.37
2019-05-19T14:04:23.062Z,27.32
2019-05-19T14:05:23.077Z,27.37
2019-05-19T14:07:16.009Z,27.60
2019-05-19T14:08:16.026Z,27.63
2019-05-19T14:10:08.965Z,27.67
2019-05-19T14:11:08.974Z,27.75
2019-05-19T14:13:01.919Z,27.54
2019-05-19T14:14:01.932Z,27.36
2019-05-19T14:15:54.855Z,27.44
2019-05-19T14:16:54.894Z,27.51
2019-05-19T14:18:47.827Z,27.62
2019-05-19T14:19:47.827Z,27.66
2019-05-19T14:21:41.243Z,27.85
2019-05-19T14:22:41.270Z,27.84
2019-05-19T14:24:34.241Z,27.88
2019-05-19T14:25:34.217Z,27.87
2019-05-19T14:27:30.734Z,27.69
2019-05-19T14:28:27.170Z,27.75
2019-05-19T14:30:20.104Z,27.65
2019-05-19T14:31:20.123Z,27.66
2019-05-19T14:33:13.050Z,27.43
2019-05-19T14:34:13.069Z,27.25
2019-05-19T14:36:05.998Z,26.99
2019-05-19T14:37:06.014Z,26.99
2019-05-19T14:38:59.942Z,26.75
2019-05-19T14:39:59.961Z,26.58
2019-05-19T14:41:52.887Z,26.47
2019-05-19T14:42:52.906Z,26.35
2019-05-19T14:44:45.859Z,26.07
2019-05-19T14:45:45.858Z,25.94
2019-05-19T14:47:38.787Z,25.46
2019-05-19T14:48:38.809Z,25.42
2019-05-19T14:50:31.743Z,25.09
2019-05-19T14:51:31.771Z,25.08
2019-05-19T14:53:24.708Z,24.90
2019-05-19T14:54:24.714Z,24.77
2019-05-19T14:56:17.625Z,24.60
2019-05-19T14:57:17.659Z,24.49
2019-05-19T14:59:10.575Z,24.42
2019-05-19T15:00:10.589Z,24.20
2019-05-19T15:02:03.516Z,24.06
2019-05-19T15:03:03.536Z,23.97
2019-05-19T15:04:56.460Z,23.97
2019-05-19T15:05:56.512Z,23.85
2019-05-19T15:07:49.407Z,23.55
2019-05-19T15:08:49.422Z,23.58
2019-05-19T15:10:42.386Z,23.54
2019-05-19T15:11:42.370Z,23.53
2019-05-19T15:13:35.306Z,23.51
2019-05-19T15:14:35.313Z,23.53
2019-05-19T15:16:28.239Z,23.53
2019-05-19T15:17:28.354Z,23.53
2019-05-19T15:19:21.205Z,23.58
2019-05-19T15:20:21.199Z,23.61
2019-05-19T15:22:14.125Z,23.68
2019-05-19T15:23:14.142Z,23.78
2019-05-19T15:25:07.070Z,23.70
2019-05-19T15:26:07.085Z,23.69
2019-05-19T15:28:02.944Z,23.48
2019-05-19T15:29:00.029Z,23.22
2019-05-19T15:30:52.955Z,23.28
2019-05-19T15:31:52.994Z,23.23
2019-05-19T15:33:45.899Z,23.31
2019-05-19T15:34:45.912Z,23.09
2019-05-19T15:36:39.165Z,22.95
2019-05-19T15:37:38.856Z,23.04
2019-05-19T15:39:31.786Z,22.97
2019-05-19T15:40:31.806Z,23.15
2019-05-19T15:42:24.741Z,23.15
2019-05-19T15:43:24.750Z,23.17
2019-05-19T15:45:17.679Z,23.22
2019-05-19T15:46:18.326Z,23.02
2019-05-19T15:48:10.618Z,22.95
2019-05-19T15:49:10.643Z,22.85
2019-05-19T15:51:03.565Z,22.95
2019-05-19T15:52:05.463Z,22.94
2019-05-19T15:53:56.508Z,22.97
2019-05-19T15:54:56.519Z,23.12
2019-05-19T15:56:49.443Z,23.23
2019-05-19T15:57:49.465Z,23.46
2019-05-19T15:59:42.405Z,23.55
2019-05-19T16:00:42.404Z,23.55
2019-05-19T16:02:35.350Z,23.36
2019-05-19T16:03:35.345Z,23.28
2019-05-19T16:05:28.275Z,23.28
2019-05-19T16:06:28.293Z,23.05
2019-05-19T16:08:21.209Z,22.85
2019-05-19T16:09:21.230Z,22.77
2019-05-19T16:11:14.659Z,22.70
2019-05-19T16:12:14.670Z,22.67
2019-05-19T16:14:07.596Z,22.72
2019-05-19T16:15:07.626Z,22.67
2019-05-19T16:17:01.065Z,22.88
2019-05-19T16:18:00.547Z,22.86
2019-05-19T16:19:53.476Z,22.75
2019-05-19T16:20:53.488Z,22.35
2019-05-19T16:22:46.576Z,22.54
2019-05-19T16:23:46.595Z,22.58
2019-05-19T16:25:39.556Z,22.49
2019-05-19T16:26:39.534Z,22.45
2019-05-19T16:28:32.461Z,22.47
2019-05-19T16:29:32.476Z,22.49
2019-05-19T16:31:25.403Z,22.67
2019-05-19T16:32:25.420Z,22.73
2019-05-19T16:34:18.346Z,22.70
2019-05-19T16:35:18.393Z,22.79
2019-05-19T16:37:11.287Z,22.80
2019-05-19T16:38:11.308Z,22.82
2019-05-19T16:40:04.730Z,22.86
2019-05-19T16:41:04.738Z,22.68
2019-05-19T16:42:57.661Z,22.94
2019-05-19T16:43:57.677Z,22.91
2019-05-19T16:45:50.606Z,22.92
2019-05-19T16:46:50.615Z,22.88
2019-05-19T16:48:43.573Z,22.86
2019-05-19T16:49:43.555Z,23.05
2019-05-19T16:51:36.477Z,23.09
2019-05-19T16:52:36.496Z,23.05
2019-05-19T16:54:29.479Z,22.90
2019-05-19T16:55:29.434Z,22.83
2019-05-19T16:57:22.358Z,22.88
2019-05-19T16:58:22.377Z,22.85
2019-05-19T17:00:15.309Z,22.76
2019-05-19T17:01:15.316Z,22.72
2019-05-19T17:03:08.237Z,22.83
2019-05-19T17:04:08.256Z,22.80
2019-05-19T17:06:01.182Z,22.70
2019-05-19T17:07:03.127Z,22.77
2019-05-19T17:08:54.120Z,22.68
2019-05-19T17:09:54.134Z,22.83
2019-05-19T17:11:47.549Z,22.73
2019-05-19T17:12:47.567Z,22.72
2019-05-19T17:14:40.500Z,22.76
2019-05-19T17:15:40.508Z,22.70
2019-05-19T17:17:33.428Z,22.65
2019-05-19T17:18:33.446Z,22.61
2019-05-19T17:20:26.376Z,22.75
2019-05-19T17:21:26.384Z,22.80
2019-05-19T17:23:19.305Z,22.90
2019-05-19T17:24:19.324Z,22.92
2019-05-19T17:26:12.251Z,23.10
2019-05-19T17:27:12.367Z,23.04
2019-05-19T17:29:05.192Z,23.22
2019-05-19T17:30:05.203Z,23.16
2019-05-19T17:32:05.580Z,23.19
2019-05-19T17:32:58.144Z,23.20
2019-05-19T17:34:51.078Z,23.31
2019-05-19T17:35:51.083Z,23.25
2019-05-19T17:37:44.002Z,23.36
2019-05-19T17:38:44.023Z,23.33
2019-05-19T17:40:36.955Z,23.22
2019-05-19T17:41:36.963Z,23.20
2019-05-19T17:43:30.378Z,23.10
2019-05-19T17:44:30.395Z,23.23
2019-05-19T17:46:23.323Z,23.10
2019-05-19T17:47:23.367Z,23.16
2019-05-19T17:49:16.264Z,23.19
2019-05-19T17:50:16.275Z,23.16
2019-05-19T17:52:09.198Z,23.39
2019-05-19T17:53:09.226Z,23.47
2019-05-19T17:55:02.146Z,23.51
2019-05-19T17:56:02.157Z,23.40
2019-05-19T17:57:55.079Z,23.51
2019-05-19T17:58:55.095Z,23.53
2019-05-19T18:00:48.023Z,23.51
2019-05-19T18:01:48.036Z,23.54
2019-05-19T18:03:40.957Z,23.58
2019-05-19T18:04:40.974Z,23.54
2019-05-19T18:06:33.903Z,23.50
2019-05-19T18:07:33.913Z,23.51
2019-05-19T18:09:26.851Z,23.43
2019-05-19T18:10:26.928Z,23.35
2019-05-19T18:12:20.274Z,23.27
2019-05-19T18:13:20.293Z,23.19
2019-05-19T18:15:13.217Z,23.02
2019-05-19T18:16:13.229Z,22.92
2019-05-19T18:18:06.155Z,22.82
2019-05-19T18:19:06.164Z,22.77
2019-05-19T18:20:59.102Z,22.58
2019-05-19T18:21:59.107Z,22.54
2019-05-19T18:23:52.031Z,22.46
2019-05-19T18:24:52.044Z,22.43
2019-05-19T18:26:44.976Z,22.27
2019-05-19T18:27:44.986Z,22.21
2019-05-19T18:29:38.423Z,22.05
2019-05-19T18:30:38.422Z,21.98
2019-05-19T18:32:31.366Z,21.92
2019-05-19T18:33:31.356Z,21.91
2019-05-19T18:35:24.289Z,21.86